sensor_id;sensor_type;location;lat;lon;timestamp;P1;durP1;ratioP1;P2;durP2;ratioP2
6207;SDS011;3137;51.550;7.060;2023-05-27T00:01:07;13.17;;;6.07;;
6207;SDS011;3137;51.550;7.060;2023-05-27T00:03:34;13.33;;;6.63;;
6207;SDS011;3137;51.550;7.060;2023-05-27T00:06:01;11.13;;;6.30;;
6207;SDS011;3137;51.550;7.060;2023-05-27T00:08:27;20.23;;;7.23;;
6207;SDS011;3137;51.550;7.060;2023-05-27T00:10:54;12.03;;;6.13;;
6207;SDS011;3137;51.550;7.060;2023-05-27T00:13:20;13.23;;;5.90;;
6207;SDS011;3137;51.550;7.060;2023-05-27T00:15:46;12.93;;;6.77;;
6207;SDS011;3137;51.550;7.060;2023-05-27T00:18:13;18.60;;;7.13;;
6207;SDS011;3137;51.550;7.060;2023-05-27T00:20:39;15.00;;;7.33;;
6207;SDS011;3137;51.550;7.060;2023-05-27T00:23:07;10.37;;;7.90;;
6207;SDS011;3137;51.550;7.060;2023-05-27T00:25:34;10.43;;;6.67;;
6207;SDS011;3137;51.550;7.060;2023-05-27T00:28:00;12.33;;;6.07;;
6207;SDS011;3137;51.550;7.060;2023-05-27T00:30:27;10.30;;;5.37;;
6207;SDS011;3137;51.550;7.060;2023-05-27T00:32:54;9.93;;;5.73;;
6207;SDS011;3137;51.550;7.060;2023-05-27T00:35:21;12.03;;;6.83;;
6207;SDS011;3137;51.550;7.060;2023-05-27T00:37:47;11.97;;;6.10;;
6207;SDS011;3137;51.550;7.060;2023-05-27T00:40:14;13.13;;;6.67;;
6207;SDS011;3137;51.550;7.060;2023-05-27T00:42:44;12.63;;;6.13;;
6207;SDS011;3137;51.550;7.060;2023-05-27T00:45:11;14.90;;;6.30;;
6207;SDS011;3137;51.550;7.060;2023-05-27T00:47:38;10.73;;;6.00;;
6207;SDS011;3137;51.550;7.060;2023-05-27T00:50:05;10.90;;;6.33;;
6207;SDS011;3137;51.550;7.060;2023-05-27T00:52:34;15.40;;;5.90;;
6207;SDS011;3137;51.550;7.060;2023-05-27T00:55:00;15.00;;;6.53;;
6207;SDS011;3137;51.550;7.060;2023-05-27T00:57:27;10.97;;;5.73;;
6207;SDS011;3137;51.550;7.060;2023-05-27T00:59:54;20.33;;;6.33;;
6207;SDS011;3137;51.550;7.060;2023-05-27T01:02:21;9.60;;;6.07;;
6207;SDS011;3137;51.550;7.060;2023-05-27T01:04:49;11.30;;;6.57;;
6207;SDS011;3137;51.550;7.060;2023-05-27T01:09:58;10.73;;;5.83;;
6207;SDS011;3137;51.550;7.060;2023-05-27T01:15:12;7.67;;;5.70;;
6207;SDS011;3137;51.550;7.060;2023-05-27T01:17:39;11.00;;;6.60;;
6207;SDS011;3137;51.550;7.060;2023-05-27T01:20:12;14.50;;;7.37;;
6207;SDS011;3137;51.550;7.060;2023-05-27T01:22:42;7.80;;;6.13;;
6207;SDS011;3137;51.550;7.060;2023-05-27T01:25:09;13.80;;;7.07;;
6207;SDS011;3137;51.550;7.060;2023-05-27T01:27:37;7.50;;;6.53;;
6207;SDS011;3137;51.550;7.060;2023-05-27T01:30:06;7.27;;;5.27;;
6207;SDS011;3137;51.550;7.060;2023-05-27T01:32:36;7.63;;;6.50;;
6207;SDS011;3137;51.550;7.060;2023-05-27T01:37:45;7.63;;;5.97;;
6207;SDS011;3137;51.550;7.060;2023-05-27T01:40:12;6.80;;;6.17;;
6207;SDS011;3137;51.550;7.060;2023-05-27T01:42:40;24.20;;;7.97;;
6207;SDS011;3137;51.550;7.060;2023-05-27T01:45:08;13.07;;;6.77;;
6207;SDS011;3137;51.550;7.060;2023-05-27T01:47:35;15.37;;;6.80;;
6207;SDS011;3137;51.550;7.060;2023-05-27T01:50:02;14.37;;;6.70;;
6207;SDS011;3137;51.550;7.060;2023-05-27T01:52:29;12.43;;;6.20;;
6207;SDS011;3137;51.550;7.060;2023-05-27T01:54:56;7.87;;;5.77;;
6207;SDS011;3137;51.550;7.060;2023-05-27T01:57:24;17.97;;;7.07;;
6207;SDS011;3137;51.550;7.060;2023-05-27T01:59:51;8.03;;;6.77;;
6207;SDS011;3137;51.550;7.060;2023-05-27T02:02:18;8.83;;;7.80;;
6207;SDS011;3137;51.550;7.060;2023-05-27T02:04:48;10.10;;;7.43;;
6207;SDS011;3137;51.550;7.060;2023-05-27T02:07:15;9.60;;;7.37;;
6207;SDS011;3137;51.550;7.060;2023-05-27T02:09:42;11.83;;;7.37;;
6207;SDS011;3137;51.550;7.060;2023-05-27T02:12:11;12.27;;;6.27;;
6207;SDS011;3137;51.550;7.060;2023-05-27T02:14:38;14.60;;;7.07;;
6207;SDS011;3137;51.550;7.060;2023-05-27T02:17:05;7.93;;;6.60;;
6207;SDS011;3137;51.550;7.060;2023-05-27T02:19:33;15.97;;;7.00;;
6207;SDS011;3137;51.550;7.060;2023-05-27T02:22:00;9.03;;;6.47;;
6207;SDS011;3137;51.550;7.060;2023-05-27T02:24:26;15.87;;;7.83;;
6207;SDS011;3137;51.550;7.060;2023-05-27T02:26:53;12.80;;;7.23;;
6207;SDS011;3137;51.550;7.060;2023-05-27T02:29:20;17.33;;;7.93;;
6207;SDS011;3137;51.550;7.060;2023-05-27T02:31:48;9.47;;;7.47;;
6207;SDS011;3137;51.550;7.060;2023-05-27T02:34:14;8.90;;;7.30;;
6207;SDS011;3137;51.550;7.060;2023-05-27T02:36:41;11.90;;;6.73;;
6207;SDS011;3137;51.550;7.060;2023-05-27T02:39:09;16.20;;;7.30;;
6207;SDS011;3137;51.550;7.060;2023-05-27T02:41:36;12.73;;;7.00;;
6207;SDS011;3137;51.550;7.060;2023-05-27T02:44:04;13.37;;;7.43;;
6207;SDS011;3137;51.550;7.060;2023-05-27T02:46:31;12.03;;;7.57;;
6207;SDS011;3137;51.550;7.060;2023-05-27T02:48:58;9.73;;;6.60;;
6207;SDS011;3137;51.550;7.060;2023-05-27T02:51:25;13.50;;;7.50;;
6207;SDS011;3137;51.550;7.060;2023-05-27T02:53:51;14.73;;;7.27;;
6207;SDS011;3137;51.550;7.060;2023-05-27T02:56:18;9.07;;;6.67;;
6207;SDS011;3137;51.550;7.060;2023-05-27T02:58:45;9.03;;;6.43;;
6207;SDS011;3137;51.550;7.060;2023-05-27T03:01:11;10.33;;;7.20;;
6207;SDS011;3137;51.550;7.060;2023-05-27T03:03:38;21.10;;;6.97;;
6207;SDS011;3137;51.550;7.060;2023-05-27T03:06:05;12.87;;;6.63;;
6207;SDS011;3137;51.550;7.060;2023-05-27T03:08:34;10.07;;;6.73;;
6207;SDS011;3137;51.550;7.060;2023-05-27T03:11:02;8.27;;;7.43;;
6207;SDS011;3137;51.550;7.060;2023-05-27T03:13:28;11.00;;;7.10;;
6207;SDS011;3137;51.550;7.060;2023-05-27T03:15:55;10.97;;;6.87;;
6207;SDS011;3137;51.550;7.060;2023-05-27T03:18:21;16.10;;;7.33;;
6207;SDS011;3137;51.550;7.060;2023-05-27T03:20:49;7.20;;;6.57;;
6207;SDS011;3137;51.550;7.060;2023-05-27T03:23:17;10.30;;;6.40;;
6207;SDS011;3137;51.550;7.060;2023-05-27T03:25:44;8.93;;;6.63;;
6207;SDS011;3137;51.550;7.060;2023-05-27T03:28:11;13.47;;;7.00;;
6207;SDS011;3137;51.550;7.060;2023-05-27T03:30:37;11.67;;;7.43;;
6207;SDS011;3137;51.550;7.060;2023-05-27T03:33:04;15.57;;;7.00;;
6207;SDS011;3137;51.550;7.060;2023-05-27T03:35:36;11.20;;;7.10;;
6207;SDS011;3137;51.550;7.060;2023-05-27T03:38:02;21.73;;;7.57;;
6207;SDS011;3137;51.550;7.060;2023-05-27T03:40:31;8.30;;;7.50;;
6207;SDS011;3137;51.550;7.060;2023-05-27T03:42:58;13.63;;;7.27;;
6207;SDS011;3137;51.550;7.060;2023-05-27T03:45:25;17.17;;;7.37;;
6207;SDS011;3137;51.550;7.060;2023-05-27T03:47:52;8.83;;;7.80;;
6207;SDS011;3137;51.550;7.060;2023-05-27T03:50:19;8.97;;;6.67;;
6207;SDS011;3137;51.550;7.060;2023-05-27T03:52:46;12.33;;;7.27;;
6207;SDS011;3137;51.550;7.060;2023-05-27T03:55:12;10.37;;;7.37;;
6207;SDS011;3137;51.550;7.060;2023-05-27T03:57:39;12.70;;;7.50;;
6207;SDS011;3137;51.550;7.060;2023-05-27T04:00:06;13.80;;;7.33;;
6207;SDS011;3137;51.550;7.060;2023-05-27T04:02:46;9.47;;;6.93;;
6207;SDS011;3137;51.550;7.060;2023-05-27T04:05:13;7.63;;;6.93;;
6207;SDS011;3137;51.550;7.060;2023-05-27T04:07:42;8.83;;;7.40;;
6207;SDS011;3137;51.550;7.060;2023-05-27T04:10:09;11.77;;;7.00;;
6207;SDS011;3137;51.550;7.060;2023-05-27T04:12:35;7.50;;;6.80;;
6207;SDS011;3137;51.550;7.060;2023-05-27T04:15:02;8.63;;;7.43;;
6207;SDS011;3137;51.550;7.060;2023-05-27T04:17:29;16.47;;;7.93;;
6207;SDS011;3137;51.550;7.060;2023-05-27T04:19:56;10.87;;;6.70;;
6207;SDS011;3137;51.550;7.060;2023-05-27T04:22:23;13.73;;;7.10;;
6207;SDS011;3137;51.550;7.060;2023-05-27T04:24:49;7.93;;;7.43;;
6207;SDS011;3137;51.550;7.060;2023-05-27T04:27:18;8.87;;;7.23;;
6207;SDS011;3137;51.550;7.060;2023-05-27T04:29:46;8.43;;;7.00;;
6207;SDS011;3137;51.550;7.060;2023-05-27T04:32:14;21.17;;;7.57;;
6207;SDS011;3137;51.550;7.060;2023-05-27T04:34:43;8.63;;;7.33;;
6207;SDS011;3137;51.550;7.060;2023-05-27T04:37:11;11.83;;;8.07;;
6207;SDS011;3137;51.550;7.060;2023-05-27T04:39:38;17.87;;;7.73;;
6207;SDS011;3137;51.550;7.060;2023-05-27T04:42:12;10.80;;;7.40;;
6207;SDS011;3137;51.550;7.060;2023-05-27T04:44:42;18.60;;;7.50;;
6207;SDS011;3137;51.550;7.060;2023-05-27T04:47:09;9.20;;;7.53;;
6207;SDS011;3137;51.550;7.060;2023-05-27T04:49:36;17.07;;;7.63;;
6207;SDS011;3137;51.550;7.060;2023-05-27T04:52:02;10.63;;;7.33;;
6207;SDS011;3137;51.550;7.060;2023-05-27T04:54:29;11.13;;;8.67;;
6207;SDS011;3137;51.550;7.060;2023-05-27T04:56:56;14.10;;;8.43;;
6207;SDS011;3137;51.550;7.060;2023-05-27T04:59:28;17.10;;;7.97;;
6207;SDS011;3137;51.550;7.060;2023-05-27T05:02:13;13.57;;;8.30;;
6207;SDS011;3137;51.550;7.060;2023-05-27T05:05:08;18.13;;;7.67;;
6207;SDS011;3137;51.550;7.060;2023-05-27T05:07:39;12.73;;;7.77;;
6207;SDS011;3137;51.550;7.060;2023-05-27T05:10:08;14.90;;;8.33;;
6207;SDS011;3137;51.550;7.060;2023-05-27T05:12:44;10.47;;;8.03;;
6207;SDS011;3137;51.550;7.060;2023-05-27T05:15:11;22.70;;;7.80;;
6207;SDS011;3137;51.550;7.060;2023-05-27T05:17:37;12.73;;;6.90;;
6207;SDS011;3137;51.550;7.060;2023-05-27T05:20:04;13.47;;;7.00;;
6207;SDS011;3137;51.550;7.060;2023-05-27T05:22:34;13.70;;;8.67;;
6207;SDS011;3137;51.550;7.060;2023-05-27T05:25:01;13.00;;;8.43;;
6207;SDS011;3137;51.550;7.060;2023-05-27T05:27:36;12.53;;;7.70;;
6207;SDS011;3137;51.550;7.060;2023-05-27T05:30:04;16.37;;;9.37;;
6207;SDS011;3137;51.550;7.060;2023-05-27T05:32:31;14.37;;;8.97;;
6207;SDS011;3137;51.550;7.060;2023-05-27T05:34:57;12.40;;;8.37;;
6207;SDS011;3137;51.550;7.060;2023-05-27T05:37:24;13.77;;;8.20;;
6207;SDS011;3137;51.550;7.060;2023-05-27T05:39:53;11.20;;;8.00;;
6207;SDS011;3137;51.550;7.060;2023-05-27T05:42:21;16.00;;;8.63;;
6207;SDS011;3137;51.550;7.060;2023-05-27T05:44:48;20.17;;;9.00;;
6207;SDS011;3137;51.550;7.060;2023-05-27T05:47:15;14.30;;;8.80;;
6207;SDS011;3137;51.550;7.060;2023-05-27T05:49:46;13.93;;;7.77;;
6207;SDS011;3137;51.550;7.060;2023-05-27T05:52:13;23.70;;;9.53;;
6207;SDS011;3137;51.550;7.060;2023-05-27T05:54:40;22.67;;;9.57;;
6207;SDS011;3137;51.550;7.060;2023-05-27T05:57:06;18.73;;;9.43;;
6207;SDS011;3137;51.550;7.060;2023-05-27T05:59:33;29.40;;;9.07;;
6207;SDS011;3137;51.550;7.060;2023-05-27T06:01:59;13.20;;;8.80;;
6207;SDS011;3137;51.550;7.060;2023-05-27T06:04:26;22.47;;;8.70;;
6207;SDS011;3137;51.550;7.060;2023-05-27T06:06:53;16.67;;;9.10;;
6207;SDS011;3137;51.550;7.060;2023-05-27T06:09:34;14.10;;;7.60;;
6207;SDS011;3137;51.550;7.060;2023-05-27T06:12:05;20.27;;;8.43;;
6207;SDS011;3137;51.550;7.060;2023-05-27T06:14:39;14.87;;;8.63;;
6207;SDS011;3137;51.550;7.060;2023-05-27T06:17:06;8.97;;;7.83;;
6207;SDS011;3137;51.550;7.060;2023-05-27T06:19:33;15.50;;;8.23;;
6207;SDS011;3137;51.550;7.060;2023-05-27T06:22:00;10.73;;;8.40;;
6207;SDS011;3137;51.550;7.060;2023-05-27T06:24:58;10.00;;;7.50;;
6207;SDS011;3137;51.550;7.060;2023-05-27T06:27:37;18.87;;;8.40;;
6207;SDS011;3137;51.550;7.060;2023-05-27T06:30:04;8.53;;;7.67;;
6207;SDS011;3137;51.550;7.060;2023-05-27T06:32:35;9.63;;;6.97;;
6207;SDS011;3137;51.550;7.060;2023-05-27T06:35:02;13.50;;;8.97;;
6207;SDS011;3137;51.550;7.060;2023-05-27T06:37:29;13.77;;;9.07;;
6207;SDS011;3137;51.550;7.060;2023-05-27T06:39:55;22.87;;;9.03;;
6207;SDS011;3137;51.550;7.060;2023-05-27T06:42:22;8.13;;;7.33;;
6207;SDS011;3137;51.550;7.060;2023-05-27T06:45:12;10.87;;;7.87;;
6207;SDS011;3137;51.550;7.060;2023-05-27T06:47:39;18.17;;;9.10;;
6207;SDS011;3137;51.550;7.060;2023-05-27T06:50:06;13.43;;;8.53;;
6207;SDS011;3137;51.550;7.060;2023-05-27T06:52:33;9.83;;;7.93;;
6207;SDS011;3137;51.550;7.060;2023-05-27T06:55:13;24.43;;;10.40;;
6207;SDS011;3137;51.550;7.060;2023-05-27T06:57:58;13.10;;;9.33;;
6207;SDS011;3137;51.550;7.060;2023-05-27T07:00:38;24.67;;;10.73;;
6207;SDS011;3137;51.550;7.060;2023-05-27T07:03:18;17.80;;;9.40;;
6207;SDS011;3137;51.550;7.060;2023-05-27T07:05:45;17.87;;;9.13;;
6207;SDS011;3137;51.550;7.060;2023-05-27T07:08:12;25.67;;;9.30;;
6207;SDS011;3137;51.550;7.060;2023-05-27T07:10:40;20.13;;;9.70;;
6207;SDS011;3137;51.550;7.060;2023-05-27T07:13:06;19.93;;;8.43;;
6207;SDS011;3137;51.550;7.060;2023-05-27T07:15:43;15.87;;;9.00;;
6207;SDS011;3137;51.550;7.060;2023-05-27T07:18:09;18.87;;;8.77;;
6207;SDS011;3137;51.550;7.060;2023-05-27T07:20:36;14.77;;;8.97;;
6207;SDS011;3137;51.550;7.060;2023-05-27T07:23:05;13.83;;;9.33;;
6207;SDS011;3137;51.550;7.060;2023-05-27T07:25:34;27.97;;;9.43;;
6207;SDS011;3137;51.550;7.060;2023-05-27T07:28:00;19.50;;;9.83;;
6207;SDS011;3137;51.550;7.060;2023-05-27T07:30:27;18.00;;;8.63;;
6207;SDS011;3137;51.550;7.060;2023-05-27T07:32:59;15.90;;;8.83;;
6207;SDS011;3137;51.550;7.060;2023-05-27T07:35:26;14.03;;;8.53;;
6207;SDS011;3137;51.550;7.060;2023-05-27T07:37:52;25.70;;;10.70;;
6207;SDS011;3137;51.550;7.060;2023-05-27T07:40:19;25.67;;;9.80;;
6207;SDS011;3137;51.550;7.060;2023-05-27T07:42:46;24.87;;;8.83;;
6207;SDS011;3137;51.550;7.060;2023-05-27T07:45:12;19.90;;;8.90;;
6207;SDS011;3137;51.550;7.060;2023-05-27T07:47:39;10.83;;;8.23;;
6207;SDS011;3137;51.550;7.060;2023-05-27T07:50:05;14.73;;;8.87;;
6207;SDS011;3137;51.550;7.060;2023-05-27T07:52:35;15.87;;;9.00;;
6207;SDS011;3137;51.550;7.060;2023-05-27T07:55:10;13.60;;;8.17;;
6207;SDS011;3137;51.550;7.060;2023-05-27T07:57:36;15.87;;;9.13;;
6207;SDS011;3137;51.550;7.060;2023-05-27T08:00:03;16.00;;;9.43;;
6207;SDS011;3137;51.550;7.060;2023-05-27T08:02:50;24.80;;;8.87;;
6207;SDS011;3137;51.550;7.060;2023-05-27T08:05:20;12.90;;;8.73;;
6207;SDS011;3137;51.550;7.060;2023-05-27T08:07:59;16.33;;;8.70;;
6207;SDS011;3137;51.550;7.060;2023-05-27T08:10:43;24.50;;;8.73;;
6207;SDS011;3137;51.550;7.060;2023-05-27T08:13:29;20.40;;;8.90;;
6207;SDS011;3137;51.550;7.060;2023-05-27T08:16:14;15.10;;;8.30;;
6207;SDS011;3137;51.550;7.060;2023-05-27T08:18:53;31.43;;;9.90;;
6207;SDS011;3137;51.550;7.060;2023-05-27T08:21:29;15.00;;;8.03;;
6207;SDS011;3137;51.550;7.060;2023-05-27T08:24:20;21.77;;;8.43;;
6207;SDS011;3137;51.550;7.060;2023-05-27T08:27:04;12.30;;;8.40;;
6207;SDS011;3137;51.550;7.060;2023-05-27T08:29:37;12.67;;;7.93;;
6207;SDS011;3137;51.550;7.060;2023-05-27T08:32:28;20.87;;;9.47;;
6207;SDS011;3137;51.550;7.060;2023-05-27T08:34:55;25.63;;;8.47;;
6207;SDS011;3137;51.550;7.060;2023-05-27T08:37:24;27.73;;;8.43;;
6207;SDS011;3137;51.550;7.060;2023-05-27T08:39:50;14.20;;;8.33;;
6207;SDS011;3137;51.550;7.060;2023-05-27T08:42:26;19.63;;;7.50;;
6207;SDS011;3137;51.550;7.060;2023-05-27T08:44:53;12.27;;;8.40;;
6207;SDS011;3137;51.550;7.060;2023-05-27T08:47:20;14.00;;;7.40;;
6207;SDS011;3137;51.550;7.060;2023-05-27T08:49:46;13.83;;;8.53;;
6207;SDS011;3137;51.550;7.060;2023-05-27T08:52:14;15.53;;;8.70;;
6207;SDS011;3137;51.550;7.060;2023-05-27T08:54:46;15.73;;;7.97;;
6207;SDS011;3137;51.550;7.060;2023-05-27T08:57:15;10.10;;;7.97;;
6207;SDS011;3137;51.550;7.060;2023-05-27T08:59:45;17.87;;;9.67;;
6207;SDS011;3137;51.550;7.060;2023-05-27T09:02:12;12.00;;;8.27;;
6207;SDS011;3137;51.550;7.060;2023-05-27T09:04:39;18.13;;;7.97;;
6207;SDS011;3137;51.550;7.060;2023-05-27T09:07:07;13.27;;;7.40;;
6207;SDS011;3137;51.550;7.060;2023-05-27T09:09:34;16.83;;;8.53;;
6207;SDS011;3137;51.550;7.060;2023-05-27T09:12:01;19.23;;;8.57;;
6207;SDS011;3137;51.550;7.060;2023-05-27T09:14:29;13.87;;;8.63;;
6207;SDS011;3137;51.550;7.060;2023-05-27T09:16:56;14.00;;;7.77;;
6207;SDS011;3137;51.550;7.060;2023-05-27T09:19:23;33.13;;;8.93;;
6207;SDS011;3137;51.550;7.060;2023-05-27T09:21:52;25.77;;;8.17;;
6207;SDS011;3137;51.550;7.060;2023-05-27T09:24:19;20.37;;;8.80;;
6207;SDS011;3137;51.550;7.060;2023-05-27T09:26:45;14.93;;;7.43;;
6207;SDS011;3137;51.550;7.060;2023-05-27T09:29:12;13.97;;;7.87;;
6207;SDS011;3137;51.550;7.060;2023-05-27T09:31:39;14.57;;;8.17;;
6207;SDS011;3137;51.550;7.060;2023-05-27T09:34:13;14.40;;;7.43;;
6207;SDS011;3137;51.550;7.060;2023-05-27T09:36:44;11.53;;;7.40;;
6207;SDS011;3137;51.550;7.060;2023-05-27T09:39:13;8.27;;;6.90;;
6207;SDS011;3137;51.550;7.060;2023-05-27T09:41:41;13.17;;;7.63;;
6207;SDS011;3137;51.550;7.060;2023-05-27T09:44:08;10.87;;;6.63;;
6207;SDS011;3137;51.550;7.060;2023-05-27T09:46:35;13.27;;;6.63;;
6207;SDS011;3137;51.550;7.060;2023-05-27T09:49:02;13.17;;;7.83;;
6207;SDS011;3137;51.550;7.060;2023-05-27T09:51:32;13.40;;;6.97;;
6207;SDS011;3137;51.550;7.060;2023-05-27T09:53:58;12.03;;;6.67;;
6207;SDS011;3137;51.550;7.060;2023-05-27T09:56:26;16.10;;;6.40;;
6207;SDS011;3137;51.550;7.060;2023-05-27T09:58:57;7.50;;;6.80;;
6207;SDS011;3137;51.550;7.060;2023-05-27T10:01:25;7.13;;;6.47;;
6207;SDS011;3137;51.550;7.060;2023-05-27T10:03:55;19.00;;;7.00;;
6207;SDS011;3137;51.550;7.060;2023-05-27T10:06:25;14.57;;;6.67;;
6207;SDS011;3137;51.550;7.060;2023-05-27T10:08:52;13.37;;;6.93;;
6207;SDS011;3137;51.550;7.060;2023-05-27T10:11:19;15.77;;;7.60;;
6207;SDS011;3137;51.550;7.060;2023-05-27T10:13:45;20.30;;;6.77;;
6207;SDS011;3137;51.550;7.060;2023-05-27T10:16:21;16.93;;;7.03;;
6207;SDS011;3137;51.550;7.060;2023-05-27T10:18:55;18.63;;;6.83;;
6207;SDS011;3137;51.550;7.060;2023-05-27T10:21:28;18.37;;;6.20;;
6207;SDS011;3137;51.550;7.060;2023-05-27T10:23:58;11.17;;;7.20;;
6207;SDS011;3137;51.550;7.060;2023-05-27T10:26:42;14.07;;;6.93;;
6207;SDS011;3137;51.550;7.060;2023-05-27T10:29:13;7.50;;;6.97;;
6207;SDS011;3137;51.550;7.060;2023-05-27T10:31:45;7.13;;;6.07;;
6207;SDS011;3137;51.550;7.060;2023-05-27T10:34:15;13.23;;;6.70;;
6207;SDS011;3137;51.550;7.060;2023-05-27T10:36:45;12.27;;;7.67;;
6207;SDS011;3137;51.550;7.060;2023-05-27T10:39:14;18.87;;;6.23;;
6207;SDS011;3137;51.550;7.060;2023-05-27T10:41:53;11.17;;;6.87;;
6207;SDS011;3137;51.550;7.060;2023-05-27T10:47:03;13.00;;;7.40;;
6207;SDS011;3137;51.550;7.060;2023-05-27T10:49:34;13.00;;;6.53;;
6207;SDS011;3137;51.550;7.060;2023-05-27T10:52:05;11.23;;;6.53;;
6207;SDS011;3137;51.550;7.060;2023-05-27T10:54:40;10.70;;;7.33;;
6207;SDS011;3137;51.550;7.060;2023-05-27T10:57:07;13.30;;;5.53;;
6207;SDS011;3137;51.550;7.060;2023-05-27T11:02:16;10.47;;;6.30;;
6207;SDS011;3137;51.550;7.060;2023-05-27T11:04:44;28.57;;;5.53;;
6207;SDS011;3137;51.550;7.060;2023-05-27T11:07:10;5.67;;;5.37;;
6207;SDS011;3137;51.550;7.060;2023-05-27T11:09:47;13.80;;;6.80;;
6207;SDS011;3137;51.550;7.060;2023-05-27T11:12:15;6.27;;;5.70;;
6207;SDS011;3137;51.550;7.060;2023-05-27T11:14:44;9.27;;;5.90;;
6207;SDS011;3137;51.550;7.060;2023-05-27T11:17:11;9.03;;;5.80;;
6207;SDS011;3137;51.550;7.060;2023-05-27T11:19:39;7.50;;;4.90;;
6207;SDS011;3137;51.550;7.060;2023-05-27T11:22:09;13.63;;;6.27;;
6207;SDS011;3137;51.550;7.060;2023-05-27T11:24:36;5.93;;;4.93;;
6207;SDS011;3137;51.550;7.060;2023-05-27T11:29:48;8.87;;;4.97;;
6207;SDS011;3137;51.550;7.060;2023-05-27T11:32:16;9.00;;;6.17;;
6207;SDS011;3137;51.550;7.060;2023-05-27T11:34:44;13.40;;;5.90;;
6207;SDS011;3137;51.550;7.060;2023-05-27T11:37:11;5.33;;;4.63;;
6207;SDS011;3137;51.550;7.060;2023-05-27T11:39:48;11.10;;;5.50;;
6207;SDS011;3137;51.550;7.060;2023-05-27T11:42:20;24.13;;;4.93;;
6207;SDS011;3137;51.550;7.060;2023-05-27T11:44:51;8.77;;;5.67;;
6207;SDS011;3137;51.550;7.060;2023-05-27T11:47:19;7.40;;;5.37;;
6207;SDS011;3137;51.550;7.060;2023-05-27T11:49:49;8.70;;;4.97;;
6207;SDS011;3137;51.550;7.060;2023-05-27T11:52:16;8.47;;;5.33;;
6207;SDS011;3137;51.550;7.060;2023-05-27T11:54:43;8.93;;;5.47;;
6207;SDS011;3137;51.550;7.060;2023-05-27T11:57:22;7.93;;;5.73;;
6207;SDS011;3137;51.550;7.060;2023-05-27T11:59:49;7.73;;;5.47;;
6207;SDS011;3137;51.550;7.060;2023-05-27T12:02:15;16.80;;;6.30;;
6207;SDS011;3137;51.550;7.060;2023-05-27T12:04:42;8.07;;;5.07;;
6207;SDS011;3137;51.550;7.060;2023-05-27T12:07:08;10.53;;;6.60;;
6207;SDS011;3137;51.550;7.060;2023-05-27T12:09:45;10.40;;;6.07;;
6207;SDS011;3137;51.550;7.060;2023-05-27T12:12:12;8.37;;;5.30;;
6207;SDS011;3137;51.550;7.060;2023-05-27T12:14:38;7.57;;;5.47;;
6207;SDS011;3137;51.550;7.060;2023-05-27T12:17:05;10.17;;;4.57;;
6207;SDS011;3137;51.550;7.060;2023-05-27T12:19:31;8.47;;;5.10;;
6207;SDS011;3137;51.550;7.060;2023-05-27T12:22:00;10.23;;;5.93;;
6207;SDS011;3137;51.550;7.060;2023-05-27T12:24:26;8.37;;;5.37;;
6207;SDS011;3137;51.550;7.060;2023-05-27T12:26:53;7.63;;;4.60;;
6207;SDS011;3137;51.550;7.060;2023-05-27T12:29:19;15.37;;;6.13;;
6207;SDS011;3137;51.550;7.060;2023-05-27T12:31:48;7.03;;;4.67;;
6207;SDS011;3137;51.550;7.060;2023-05-27T12:34:14;8.53;;;6.07;;
6207;SDS011;3137;51.550;7.060;2023-05-27T12:36:41;9.70;;;5.77;;
6207;SDS011;3137;51.550;7.060;2023-05-27T12:39:08;5.93;;;5.30;;
6207;SDS011;3137;51.550;7.060;2023-05-27T12:41:34;11.07;;;5.07;;
6207;SDS011;3137;51.550;7.060;2023-05-27T12:44:01;10.43;;;6.33;;
6207;SDS011;3137;51.550;7.060;2023-05-27T12:46:27;6.80;;;5.53;;
6207;SDS011;3137;51.550;7.060;2023-05-27T12:48:54;6.07;;;5.43;;
6207;SDS011;3137;51.550;7.060;2023-05-27T12:51:22;6.30;;;5.90;;
6207;SDS011;3137;51.550;7.060;2023-05-27T12:53:48;12.30;;;5.40;;
6207;SDS011;3137;51.550;7.060;2023-05-27T12:56:15;5.33;;;4.97;;
6207;SDS011;3137;51.550;7.060;2023-05-27T12:58:41;11.93;;;5.33;;
6207;SDS011;3137;51.550;7.060;2023-05-27T13:01:08;5.83;;;5.27;;
6207;SDS011;3137;51.550;7.060;2023-05-27T13:03:34;5.70;;;5.17;;
6207;SDS011;3137;51.550;7.060;2023-05-27T13:06:00;4.83;;;4.40;;
6207;SDS011;3137;51.550;7.060;2023-05-27T13:08:27;18.73;;;5.97;;
6207;SDS011;3137;51.550;7.060;2023-05-27T13:10:53;5.93;;;5.43;;
6207;SDS011;3137;51.550;7.060;2023-05-27T13:13:20;17.00;;;5.53;;
6207;SDS011;3137;51.550;7.060;2023-05-27T13:15:47;9.07;;;5.53;;
6207;SDS011;3137;51.550;7.060;2023-05-27T13:18:14;35.53;;;7.50;;
6207;SDS011;3137;51.550;7.060;2023-05-27T13:20:40;6.60;;;5.53;;
6207;SDS011;3137;51.550;7.060;2023-05-27T13:23:07;12.53;;;5.33;;
6207;SDS011;3137;51.550;7.060;2023-05-27T13:25:33;6.20;;;5.57;;
6207;SDS011;3137;51.550;7.060;2023-05-27T13:28:00;11.80;;;5.77;;
6207;SDS011;3137;51.550;7.060;2023-05-27T13:30:26;5.37;;;4.90;;
6207;SDS011;3137;51.550;7.060;2023-05-27T13:32:53;11.00;;;5.67;;
6207;SDS011;3137;51.550;7.060;2023-05-27T13:35:21;9.03;;;6.30;;
6207;SDS011;3137;51.550;7.060;2023-05-27T13:37:47;8.20;;;5.67;;
6207;SDS011;3137;51.550;7.060;2023-05-27T13:40:14;11.87;;;5.83;;
6207;SDS011;3137;51.550;7.060;2023-05-27T13:42:40;10.43;;;5.47;;
6207;SDS011;3137;51.550;7.060;2023-05-27T13:45:07;6.03;;;5.43;;
6207;SDS011;3137;51.550;7.060;2023-05-27T13:47:35;5.37;;;5.07;;
6207;SDS011;3137;51.550;7.060;2023-05-27T13:50:05;8.40;;;5.00;;
6207;SDS011;3137;51.550;7.060;2023-05-27T13:52:32;8.93;;;5.03;;
6207;SDS011;3137;51.550;7.060;2023-05-27T13:54:58;5.97;;;5.43;;
6207;SDS011;3137;51.550;7.060;2023-05-27T13:57:24;6.97;;;5.70;;
6207;SDS011;3137;51.550;7.060;2023-05-27T13:59:51;15.67;;;6.67;;
6207;SDS011;3137;51.550;7.060;2023-05-27T14:02:17;10.60;;;6.57;;
6207;SDS011;3137;51.550;7.060;2023-05-27T14:04:44;58.53;;;9.10;;
6207;SDS011;3137;51.550;7.060;2023-05-27T14:07:10;5.47;;;5.07;;
6207;SDS011;3137;51.550;7.060;2023-05-27T14:09:37;9.83;;;5.57;;
6207;SDS011;3137;51.550;7.060;2023-05-27T14:12:03;7.63;;;5.30;;
6207;SDS011;3137;51.550;7.060;2023-05-27T14:14:30;6.50;;;5.30;;
6207;SDS011;3137;51.550;7.060;2023-05-27T14:16:57;6.20;;;5.77;;
6207;SDS011;3137;51.550;7.060;2023-05-27T14:19:24;5.57;;;4.70;;
6207;SDS011;3137;51.550;7.060;2023-05-27T14:21:50;11.00;;;5.57;;
6207;SDS011;3137;51.550;7.060;2023-05-27T14:24:17;11.20;;;5.23;;
6207;SDS011;3137;51.550;7.060;2023-05-27T14:26:43;7.10;;;5.00;;
6207;SDS011;3137;51.550;7.060;2023-05-27T14:29:10;6.33;;;5.87;;
6207;SDS011;3137;51.550;7.060;2023-05-27T14:31:37;5.43;;;5.03;;
6207;SDS011;3137;51.550;7.060;2023-05-27T14:34:04;7.33;;;4.73;;
6207;SDS011;3137;51.550;7.060;2023-05-27T14:36:30;10.93;;;5.43;;
6207;SDS011;3137;51.550;7.060;2023-05-27T14:38:57;5.40;;;5.10;;
6207;SDS011;3137;51.550;7.060;2023-05-27T14:41:23;7.10;;;4.50;;
6207;SDS011;3137;51.550;7.060;2023-05-27T14:43:49;5.43;;;5.07;;
6207;SDS011;3137;51.550;7.060;2023-05-27T14:46:22;5.57;;;5.07;;
6207;SDS011;3137;51.550;7.060;2023-05-27T14:48:48;5.57;;;5.03;;
6207;SDS011;3137;51.550;7.060;2023-05-27T14:51:15;7.43;;;5.07;;
6207;SDS011;3137;51.550;7.060;2023-05-27T14:53:42;5.47;;;4.97;;
6207;SDS011;3137;51.550;7.060;2023-05-27T14:56:08;5.37;;;4.87;;
6207;SDS011;3137;51.550;7.060;2023-05-27T14:58:35;8.77;;;5.87;;
6207;SDS011;3137;51.550;7.060;2023-05-27T15:01:02;5.17;;;4.87;;
6207;SDS011;3137;51.550;7.060;2023-05-27T15:03:29;5.37;;;4.87;;
6207;SDS011;3137;51.550;7.060;2023-05-27T15:05:57;5.63;;;5.20;;
6207;SDS011;3137;51.550;7.060;2023-05-27T15:08:24;6.50;;;5.10;;
6207;SDS011;3137;51.550;7.060;2023-05-27T15:10:51;6.83;;;6.33;;
6207;SDS011;3137;51.550;7.060;2023-05-27T15:13:18;5.43;;;5.03;;
6207;SDS011;3137;51.550;7.060;2023-05-27T15:15:45;6.23;;;4.93;;
6207;SDS011;3137;51.550;7.060;2023-05-27T15:18:12;6.60;;;5.63;;
6207;SDS011;3137;51.550;7.060;2023-05-27T15:20:38;6.40;;;4.93;;
6207;SDS011;3137;51.550;7.060;2023-05-27T15:23:05;14.40;;;5.00;;
6207;SDS011;3137;51.550;7.060;2023-05-27T15:25:31;6.90;;;5.23;;
6207;SDS011;3137;51.550;7.060;2023-05-27T15:27:58;5.83;;;5.40;;
6207;SDS011;3137;51.550;7.060;2023-05-27T15:30:24;5.87;;;4.87;;